Time;durP1;ratioP1;P1;durP2;ratioP2;P2;SDS_P1;SDS_P2;PMS_P1;PMS_P2;Temp;Humidity;BMP_temperature;BMP_pressure;BME280_temperature;BME280_humidity;BME280_pressure;Samples;Min_cycle;Max_cycle;Signal;HPM_P1;HPM_P2
2024/02/24 00:01:21;;;;;;;3.17;1.93;;;3.90;99.90;;;4.70;100.00;96123.81;5038265;28;20218;-77
2024/02/24 00:03:49;;;;;;;1.63;1.53;;;3.90;99.90;;;4.72;100.00;96127.78;5037789;28;20939;-77
2024/02/24 00:06:17;;;;;;;2.38;1.45;;;4.00;99.90;;;4.77;100.00;96122.84;5037451;28;20853;-77
2024/02/24 00:08:47;;;;;;;1.77;1.57;;;4.00;99.90;;;4.84;100.00;96121.03;5036504;28;20210;-77
2024/02/24 00:11:16;;;;;;;3.93;1.70;;;4.10;99.90;;;4.85;100.00;96116.66;5038965;28;20459;-77
2024/02/24 00:13:45;;;;;;;3.50;2.47;;;4.10;99.90;;;4.87;100.00;96119.84;5036918;28;20499;-77
2024/02/24 00:16:14;;;;;;;3.30;2.30;;;4.20;99.90;;;4.85;100.00;96117.47;5036502;28;21011;-77
2024/02/24 00:18:42;;;;;;;3.37;2.10;;;4.10;99.90;;;4.87;100.00;96119.84;5036821;28;20485;-77
2024/02/24 00:21:11;;;;;;;3.50;2.60;;;4.10;99.90;;;4.91;100.00;96121.84;5038217;28;20462;-77
2024/02/24 00:23:39;;;;;;;1.73;1.30;;;4.10;99.90;;;4.91;100.00;96115.88;5037118;28;20473;-77
2024/02/24 00:26:09;;;;;;;1.93;1.67;;;4.10;99.90;;;4.91;100.00;96111.50;5040854;28;20530;-77
2024/02/24 00:28:37;;;;;;;1.90;1.60;;;4.10;99.90;;;4.90;100.00;96112.47;5041820;28;20500;-76
2024/02/24 00:31:06;;;;;;;1.87;1.53;;;4.20;99.90;;;4.89;100.00;96113.50;5042630;28;20710;-77
2024/02/24 00:33:34;;;;;;;2.63;1.60;;;4.20;99.90;;;4.92;100.00;96117.47;5040494;28;20573;-77
2024/02/24 00:36:03;;;;;;;1.40;1.27;;;4.30;99.90;;;4.98;100.00;96120.06;5042017;28;20461;-77
2024/02/24 00:38:32;;;;;;;2.30;1.70;;;4.30;99.90;;;5.01;100.00;96117.06;5042109;28;20467;-76
2024/02/24 00:41:00;;;;;;;1.63;1.50;;;4.20;99.90;;;4.98;100.00;96111.50;5042301;28;20199;-77
2024/02/24 00:43:30;;;;;;;2.50;2.03;;;4.30;99.90;;;5.02;100.00;96115.28;5040048;28;20485;-77
2024/02/24 00:45:59;;;;;;;2.30;1.60;;;4.30;99.90;;;5.05;100.00;96107.09;5042459;28;20462;-77
2024/02/24 00:48:28;;;;;;;3.90;2.00;;;4.30;99.90;;;5.05;100.00;96117.47;5042549;28;20865;-77
2024/02/24 00:50:57;;;;;;;1.63;1.53;;;4.30;99.90;;;5.08;100.00;96102.31;5042018;28;20469;-77
2024/02/24 00:53:28;;;;;;;4.53;1.60;;;4.40;99.90;;;5.16;100.00;96098.72;5041812;28;20520;-77
2024/02/24 00:55:56;;;;;;;1.90;1.50;;;4.40;99.90;;;5.13;100.00;96103.50;5040251;28;20470;-77
2024/02/24 00:58:24;;;;;;;4.50;2.13;;;4.40;99.90;;;5.15;100.00;96106.69;5041130;28;20464;-77
2024/02/24 01:00:54;;;;;;;5.10;1.70;;;4.40;99.90;;;5.16;100.00;96106.50;5042347;28;21996;-77
2024/02/24 01:03:23;;;;;;;3.10;1.70;;;4.50;99.90;;;5.20;100.00;96105.09;5042257;28;21087;-76
2024/02/24 01:05:51;;;;;;;3.60;1.70;;;4.50;99.90;;;5.20;100.00;96105.09;5039799;28;20491;-77
2024/02/24 01:08:20;;;;;;;1.77;1.60;;;4.60;99.90;;;5.27;100.00;96103.31;5038563;28;20973;-77
2024/02/24 01:10:49;;;;;;;1.60;1.40;;;4.60;99.90;;;5.29;100.00;96114.25;5039113;28;21085;-77
2024/02/24 01:13:17;;;;;;;3.73;1.50;;;4.70;99.90;;;5.33;100.00;96099.91;5041193;28;20504;-77
2024/02/24 01:15:46;;;;;;;4.30;1.50;;;4.70;99.90;;;5.34;100.00;96106.69;5040082;28;20876;-77
2024/02/24 01:18:16;;;;;;;1.93;1.50;;;4.70;99.90;;;5.30;100.00;96105.50;5038255;28;20454;-77
2024/02/24 01:20:48;;;;;;;3.50;1.40;;;4.70;99.90;;;5.31;100.00;96109.66;5040002;28;20461;-77
2024/02/24 01:23:17;;;;;;;1.57;1.37;;;4.80;99.90;;;5.35;100.00;96120.41;5039752;28;20566;-77
2024/02/24 01:25:46;;;;;;;2.07;1.60;;;4.80;99.90;;;5.37;100.00;96106.28;5039440;28;20947;-77
2024/02/24 01:28:14;;;;;;;4.90;1.80;;;4.80;99.90;;;5.42;100.00;96103.06;5040585;28;20486;-77
2024/02/24 01:30:43;;;;;;;5.10;1.20;;;4.80;99.90;;;5.46;100.00;96105.03;5040899;28;21052;-77
2024/02/24 01:33:12;;;;;;;1.13;1.02;;;4.80;99.90;;;5.48;100.00;96108.22;5040043;28;20490;-77
2024/02/24 01:35:42;;;;;;;1.10;1.00;;;4.90;99.90;;;5.50;100.00;96110.63;5038993;28;20283;-78
2024/02/24 01:38:10;;;;;;;2.40;1.23;;;5.00;99.90;;;5.47;100.00;96101.47;5040730;28;20879;-77
2024/02/24 01:40:39;;;;;;;2.20;1.10;;;4.90;99.90;;;5.51;100.00;96104.44;5039562;28;20461;-77
2024/02/24 01:43:25;;;;;;;1.97;1.23;;;4.90;99.90;;;5.53;100.00;96095.47;5040350;28;20967;-77
2024/02/24 01:45:56;;;;;;;1.10;1.00;;;4.80;99.90;;;5.55;100.00;96103.03;5039979;28;20474;-77
2024/02/24 01:48:25;;;;;;;1.10;1.00;;;4.80;99.90;;;5.56;100.00;96097.66;5041811;28;20869;-77
2024/02/24 01:50:56;;;;;;;2.90;1.00;;;4.90;99.90;;;5.59;100.00;96099.03;5038034;28;20956;-77
2024/02/24 01:53:26;;;;;;;1.07;0.97;;;5.00;99.90;;;5.57;100.00;96101.84;5039763;28;20503;-77
2024/02/24 01:55:55;;;;;;;1.37;1.20;;;4.90;99.90;;;5.62;100.00;96095.25;5039986;28;20473;-77
2024/02/24 01:58:24;;;;;;;1.27;1.00;;;4.90;99.90;;;5.59;100.00;96101.63;5041498;28;21005;-77
2024/02/24 02:00:53;;;;;;;1.37;1.10;;;4.90;99.90;;;5.62;100.00;96111.59;5042768;28;20510;-77
2024/02/24 02:03:21;;;;;;;1.10;1.00;;;4.90;99.90;;;5.63;100.00;96104.59;5041301;28;20549;-77
2024/02/24 02:05:50;;;;;;;2.20;1.00;;;4.90;99.90;;;5.66;100.00;96117.19;5040645;28;20464;-77
2024/02/24 02:08:20;;;;;;;1.27;1.00;;;4.90;99.90;;;5.63;100.00;96114.97;5038318;28;20832;-77
2024/02/24 02:10:52;;;;;;;2.17;1.10;;;5.00;99.90;;;5.54;100.00;96112.63;5042217;28;20478;-77
2024/02/24 02:13:21;;;;;;;1.30;1.17;;;4.90;99.90;;;5.57;100.00;96107.03;5040114;28;20496;-77
2024/02/24 02:15:52;;;;;;;1.00;0.90;;;4.90;99.90;;;5.59;100.00;96120.56;5038985;28;20977;-77
2024/02/24 02:18:21;;;;;;;1.50;1.40;;;4.90;99.90;;;5.56;100.00;96115.00;5039833;28;21009;-76
2024/02/24 02:20:52;;;;;;;2.50;1.00;;;4.80;99.90;;;5.56;100.00;96108.00;5039984;28;20473;-77
2024/02/24 02:23:22;;;;;;;1.10;1.00;;;4.90;99.90;;;5.57;100.00;96106.22;5040523;28;20458;-77
2024/02/24 02:25:51;;;;;;;1.13;1.00;;;4.80;99.90;;;5.57;100.00;96111.41;5038964;28;20484;-77
2024/02/24 02:28:19;;;;;;;1.87;1.30;;;4.90;99.90;;;5.52;100.00;96119.78;5039317;28;20466;-77
2024/02/24 02:30:48;;;;;;;1.50;1.17;;;4.90;99.90;;;5.50;100.00;96116.59;5040279;28;20472;-77
2024/02/24 02:33:16;;;;;;;1.20;1.10;;;5.00;99.90;;;5.48;100.00;96118.59;5038798;28;20504;-77
2024/02/24 02:35:45;;;;;;;2.00;1.30;;;5.00;99.90;;;5.54;100.00;96117.00;5038962;28;20890;-77
2024/02/24 02:38:13;;;;;;;4.70;2.07;;;4.90;99.90;;;5.55;100.00;96114.19;5039027;28;20684;-77
2024/02/24 02:40:43;;;;;;;1.30;1.20;;;4.90;99.90;;;5.59;100.00;96115.38;5040003;28;20747;-77
2024/02/24 02:43:12;;;;;;;3.10;1.23;;;4.90;99.90;;;5.59;100.00;96115.38;5038455;28;20469;-77
2024/02/24 02:45:40;;;;;;;3.27;1.20;;;4.80;99.90;;;5.63;100.00;96114.97;5039988;28;20952;-77
2024/02/24 02:48:11;;;;;;;1.40;1.30;;;4.80;99.90;;;5.61;100.00;96112.59;5039740;28;20471;-77
2024/02/24 02:50:40;;;;;;;1.10;1.00;;;4.90;99.90;;;5.57;100.00;96117.38;5039232;28;20512;-77
2024/02/24 02:53:08;;;;;;;1.40;1.20;;;4.80;99.90;;;5.56;100.00;96133.94;5039806;28;20461;-77
2024/02/24 02:55:37;;;;;;;1.50;1.27;;;4.80;99.90;;;5.61;100.00;96132.53;5039464;28;20558;-77
2024/02/24 02:58:07;;;;;;;1.33;1.10;;;4.90;99.90;;;5.55;100.00;96142.69;5038767;28;20471;-77
2024/02/24 03:00:36;;;;;;;1.23;1.07;;;4.80;99.90;;;5.50;100.00;96142.53;5038160;28;20605;-76
2024/02/24 03:03:05;;;;;;;4.23;1.30;;;4.80;99.90;;;5.52;100.00;96139.72;5038855;28;20496;-77
2024/02/24 03:05:33;;;;;;;1.43;1.27;;;4.90;99.90;;;5.49;100.00;96140.94;5037868;28;20480;-77
2024/02/24 03:08:02;;;;;;;2.47;1.40;;;4.80;99.90;;;5.45;100.00;96141.53;5038845;28;20454;-77
2024/02/24 03:10:30;;;;;;;2.73;1.20;;;4.90;99.90;;;5.48;100.00;96136.72;5039156;28;20515;-77
2024/02/24 03:12:59;;;;;;;1.40;1.30;;;4.80;99.90;;;5.50;100.00;96136.53;5038215;28;20933;-77
2024/02/24 03:15:29;;;;;;;3.27;1.27;;;4.80;99.90;;;5.47;100.00;96136.94;5035859;28;20500;-77
2024/02/24 03:17:57;;;;;;;1.20;1.10;;;4.90;99.90;;;5.47;100.00;96142.94;5037736;28;20472;-77
2024/02/24 03:20:26;;;;;;;5.50;1.00;;;4.80;99.90;;;5.44;100.00;96140.75;5037776;28;20461;-77
2024/02/24 03:22:54;;;;;;;2.47;1.30;;;4.90;99.90;;;5.36;100.00;96135.78;5038444;28;20473;-77
2024/02/24 03:25:23;;;;;;;3.93;1.33;;;5.00;99.90;;;5.36;100.00;96151.31;5036899;28;20492;-77
2024/02/24 03:27:51;;;;;;;1.20;1.10;;;4.80;99.90;;;5.43;100.00;96166.84;5039896;28;20544;-77
2024/02/24 03:30:20;;;;;;;1.10;1.00;;;4.80;99.90;;;5.46;100.00;96153.50;5039160;28;20459;-77
2024/02/24 03:32:50;;;;;;;1.25;1.10;;;4.80;99.90;;;5.48;100.00;96165.25;5038395;28;20232;-77
2024/02/24 03:35:19;;;;;;;4.50;1.20;;;4.80;99.90;;;5.54;100.00;96156.69;5038591;28;20291;-77
2024/02/24 03:37:49;;;;;;;1.60;1.30;;;4.90;99.90;;;5.58;100.00;96144.13;5037359;28;20961;-77
2024/02/24 03:40:18;;;;;;;1.23;1.13;;;5.00;99.90;;;5.56;100.00;96141.72;5037913;28;20217;-77
2024/02/24 03:42:47;;;;;;;1.50;1.00;;;5.00;99.90;;;5.55;100.00;96150.47;5038092;28;20548;-77
2024/02/24 03:45:16;;;;;;;1.53;1.23;;;5.00;99.90;;;5.55;100.00;96158.25;5037931;28;20468;-77
2024/02/24 03:47:45;;;;;;;1.20;1.10;;;4.90;99.90;;;5.54;100.00;96151.50;5038002;28;20601;-77
2024/02/24 03:50:15;;;;;;;1.40;1.10;;;4.90;99.90;;;5.56;100.00;96154.66;5038625;28;21925;-77
2024/02/24 03:52:43;;;;;;;1.20;1.10;;;4.80;99.90;;;5.57;100.00;96152.88;5038870;28;20450;-77
2024/02/24 03:55:11;;;;;;;3.13;1.43;;;4.80;99.90;;;5.50;100.00;96158.09;5038714;28;21045;-77
2024/02/24 03:57:40;;;;;;;2.10;1.20;;;5.00;99.90;;;5.45;100.00;96160.47;5036201;28;20468;-77
2024/02/24 04:00:10;;;;;;;1.90;1.33;;;4.90;99.90;;;5.43;100.00;96162.47;5039066;28;20474;-77
2024/02/24 04:02:42;;;;;;;1.00;1.00;;;4.80;99.90;;;5.40;100.00;96160.28;5039776;28;20511;-77
2024/02/24 04:05:10;;;;;;;1.00;0.90;;;4.80;99.90;;;5.36;100.00;96148.72;5038233;28;20666;-77
2024/02/24 04:07:40;;;;;;;3.00;1.20;;;4.90;99.90;;;5.25;100.00;96154.50;5035266;28;20507;-77
2024/02/24 04:10:09;;;;;;;3.30;1.40;;;4.70;99.90;;;5.26;100.00;96153.53;5029458;28;20818;-78
2024/02/24 04:12:38;;;;;;;4.57;1.97;;;4.70;99.90;;;5.21;100.00;96158.50;5030797;28;20463;-77
2024/02/24 04:15:08;;;;;;;3.50;2.07;;;4.60;99.90;;;5.17;100.00;96157.31;5030733;28;20551;-77
2024/02/24 04:17:37;;;;;;;1.30;1.20;;;4.60;99.90;;;5.13;100.00;96158.72;5030241;28;20476;-77
2024/02/24 04:20:07;;;;;;;11.73;1.20;;;4.60;99.90;;;5.15;100.00;96158.50;5030893;28;20873;-78
2024/02/24 04:22:36;;;;;;;1.67;1.17;;;4.50;99.90;;;5.12;100.00;96158.91;5030349;28;20612;-81
2024/02/24 04:25:07;;;;;;;19.60;8.97;;;4.50;99.90;;;5.10;100.00;96155.72;5028262;28;20723;-78
2024/02/24 04:27:36;;;;;;;1.70;1.60;;;4.40;99.90;;;5.05;100.00;96158.91;5032087;28;20467;-78
2024/02/24 04:30:07;;;;;;;6.73;1.50;;;4.30;99.90;;;5.10;100.00;96166.09;5028798;28;20466;-78
2024/02/24 04:32:36;;;;;;;1.30;1.20;;;4.30;99.90;;;5.08;100.00;96158.50;5036731;28;21061;-78
2024/02/24 04:35:05;;;;;;;5.20;1.30;;;4.40;99.90;;;5.08;100.00;96154.13;5037384;28;21129;-78
2024/02/24 04:37:33;;;;;;;2.10;1.35;;;4.40;99.90;;;5.14;100.00;96159.50;5036387;28;20290;-78
2024/02/24 04:40:02;;;;;;;1.17;1.08;;;4.40;99.90;;;5.12;100.00;96164.06;5038080;28;20212;-78
2024/02/24 04:42:32;;;;;;;1.40;1.30;;;4.30;99.90;;;5.14;100.00;96157.69;5036132;28;20195;-78
2024/02/24 04:45:00;;;;;;;1.50;1.20;;;4.40;99.90;;;5.19;100.00;96164.88;5037675;28;20462;-78
2024/02/24 04:47:28;;;;;;;1.50;1.20;;;4.40;99.90;;;5.24;100.00;96160.69;5037133;28;20881;-78
2024/02/24 04:49:57;;;;;;;1.52;1.27;;;4.50;99.90;;;5.24;100.00;96160.69;5037817;28;20483;-78
2024/02/24 04:52:27;;;;;;;2.00;1.13;;;4.50;99.90;;;5.28;100.00;96163.66;5036862;28;20211;-78
2024/02/24 04:54:55;;;;;;;3.90;1.33;;;4.60;99.90;;;5.29;100.00;96168.66;5037832;28;20499;-78
2024/02/24 04:57:23;;;;;;;1.67;1.20;;;4.60;99.90;;;5.29;100.00;96165.28;5036796;28;20470;-79
2024/02/24 04:59:53;;;;;;;2.90;1.50;;;4.70;99.90;;;5.27;100.00;96167.28;5037941;28;20461;-79
2024/02/24 05:02:22;;;;;;;1.77;1.30;;;4.60;99.90;;;5.28;100.00;96168.84;5037657;28;20513;-78
2024/02/24 05:04:52;;;;;;;1.42;1.25;;;4.60;99.90;;;5.33;100.00;96174.25;5036469;28;20456;-78
2024/02/24 05:07:21;;;;;;;1.87;1.30;;;4.60;99.90;;;5.38;100.00;96170.03;5038398;28;20206;-78
2024/02/24 05:09:49;;;;;;;1.25;1.13;;;4.60;99.90;;;5.39;100.00;96178.63;5037156;28;20473;-78
2024/02/24 05:12:18;;;;;;;2.90;1.30;;;4.60;99.90;;;5.39;100.00;96176.81;5037938;28;20302;-79
2024/02/24 05:14:48;;;;;;;7.23;1.40;;;4.70;99.90;;;5.44;100.00;96174.44;5039870;28;20550;-78
2024/02/24 05:17:18;;;;;;;1.70;1.27;;;4.70;99.90;;;5.43;100.00;96185.00;5040279;28;20460;-78
2024/02/24 05:19:47;;;;;;;1.43;1.00;;;4.70;99.90;;;5.43;100.00;96177.22;5037892;28;20200;-78
2024/02/24 05:22:15;;;;;;;2.80;1.23;;;4.80;99.90;;;5.43;100.00;96185.78;5036010;28;20469;-83
2024/02/24 05:24:44;;;;;;;1.50;1.30;;;4.80;99.90;;;5.44;100.00;96182.22;5033485;28;20902;-79
2024/02/24 05:27:12;;;;;;;1.20;1.00;;;4.80;99.90;;;5.49;100.00;96187.59;5040123;28;20800;-79
2024/02/24 05:29:46;;;;;;;1.10;1.00;;;4.80;99.90;;;5.53;100.00;96188.78;5041585;28;20564;-79
2024/02/24 05:32:16;;;;;;;1.27;1.17;;;4.90;99.90;;;5.57;100.00;96199.53;5038740;28;20564;-79
2024/02/24 05:34:46;;;;;;;1.57;1.43;;;5.00;99.90;;;5.57;100.00;96195.16;5039710;28;20936;-79
2024/02/24 05:37:15;;;;;;;1.70;1.10;;;4.90;99.90;;;5.41;100.00;96203.34;5040570;28;20520;-79
2024/02/24 05:39:45;;;;;;;2.90;1.23;;;4.80;99.90;;;5.35;100.00;96204.13;5039959;28;20827;-79
2024/02/24 05:42:18;;;;;;;1.60;1.07;;;4.70;99.90;;;5.37;100.00;96209.94;5038289;28;20465;-78
2024/02/24 05:44:47;;;;;;;1.30;1.00;;;4.80;99.90;;;5.37;100.00;96220.28;5039381;28;20573;-79
2024/02/24 05:47:15;;;;;;;1.33;1.00;;;4.90;99.90;;;5.18;100.00;96215.09;5039863;28;21208;-79
2024/02/24 05:49:44;;;;;;;1.83;0.83;;;4.60;99.90;;;5.17;100.00;96226.47;5038788;28;21078;-79
2024/02/24 05:52:14;;;;;;;1.10;1.00;;;4.60;99.90;;;5.17;100.00;96229.84;5040618;28;20514;-79
2024/02/24 05:54:42;;;;;;;2.55;0.70;;;4.70;99.90;;;5.12;100.00;96227.06;5041560;28;20469;-78
2024/02/24 05:57:11;;;;;;;0.90;0.90;;;4.60;99.90;;;5.05;100.00;96234.00;5038689;28;20295;-79
2024/02/24 05:59:39;;;;;;;0.80;0.75;;;4.70;99.90;;;5.00;100.00;96236.38;5041363;28;20467;-78
2024/02/24 06:02:08;;;;;;;0.80;0.70;;;4.70;99.90;;;5.00;100.00;96244.16;5039707;28;20213;-78
2024/02/24 06:04:38;;;;;;;0.80;0.80;;;4.60;99.90;;;4.94;100.00;96250.13;5036657;28;20862;-79
2024/02/24 06:07:07;;;;;;;0.80;0.80;;;4.50;99.90;;;4.91;100.00;96245.34;5034183;28;20550;-83
2024/02/24 06:09:37;;;;;;;0.90;0.90;;;4.50;99.90;;;4.95;100.00;96243.97;5033964;28;20468;-78
2024/02/24 06:12:07;;;;;;;0.80;0.80;;;4.50;99.90;;;4.97;100.00;96245.34;5027193;28;20477;-79
2024/02/24 06:14:36;;;;;;;0.80;0.70;;;4.50;99.90;;;4.96;100.00;96248.16;5033200;28;21732;-79
2024/02/24 06:17:04;;;;;;;1.08;1.00;;;4.40;99.90;;;4.97;100.00;96249.72;5033659;28;20504;-78
2024/02/24 06:19:33;;;;;;;0.70;0.70;;;4.60;99.90;;;4.90;100.00;96261.84;5034919;28;20219;-79
2024/02/24 06:22:01;;;;;;;1.30;1.00;;;4.50;99.90;;;4.91;100.00;96266.06;5032868;28;20473;-78
2024/02/24 06:24:30;;;;;;;3.13;0.83;;;4.50;99.90;;;4.91;100.00;96266.84;5029339;28;20458;-78
2024/02/24 06:26:59;;;;;;;0.80;0.70;;;4.40;99.90;;;4.89;100.00;96268.84;5033105;28;20474;-79
2024/02/24 06:29:28;;;;;;;0.80;0.80;;;4.30;99.90;;;4.88;100.00;96272.44;5032294;28;20594;-78
2024/02/24 06:31:56;;;;;;;0.88;0.80;;;4.30;99.90;;;4.94;100.00;96276.03;5031619;28;20982;-78
2024/02/24 06:34:25;;;;;;;0.93;0.83;;;4.30;99.90;;;4.98;100.00;96277.22;5033941;28;20207;-78
2024/02/24 06:36:53;;;;;;;1.00;0.90;;;4.30;99.90;;;5.03;100.00;96274.88;5032440;28;20842;-78
2024/02/24 06:39:22;;;;;;;1.60;0.90;;;4.30;99.90;;;5.07;100.00;96284.63;5032187;28;20518;-77
2024/02/24 06:41:50;;;;;;;1.10;0.90;;;4.40;99.90;;;5.07;100.00;96289.00;5031665;28;20860;-78
2024/02/24 06:44:20;;;;;;;0.70;0.70;;;4.30;99.90;;;5.09;100.00;96294.78;5029341;28;20557;-78
2024/02/24 06:46:49;;;;;;;0.90;0.80;;;4.30;99.90;;;5.08;100.00;96299.16;5032742;28;20475;-77
2024/02/24 06:49:21;;;;;;;0.90;0.83;;;4.30;99.90;;;5.07;100.00;96297.56;5031872;28;20480;-78
2024/02/24 06:51:50;;;;;;;1.00;0.90;;;4.30;99.90;;;5.05;100.00;96309.13;5030138;28;20486;-78
2024/02/24 06:54:19;;;;;;;1.27;1.00;;;4.30;99.90;;;5.10;100.00;96322.31;5033148;28;20460;-77
2024/02/24 06:56:47;;;;;;;1.40;1.07;;;4.40;99.90;;;5.13;100.00;96318.50;5031963;28;20505;-77
2024/02/24 06:59:16;;;;;;;1.53;0.90;;;4.40;99.90;;;5.12;100.00;96319.50;5032743;28;20562;-78
2024/02/24 07:01:46;;;;;;;0.80;0.80;;;4.50;99.90;;;5.12;100.00;96338.44;5033966;28;20563;-78
2024/02/24 07:04:15;;;;;;;1.27;0.80;;;4.60;99.90;;;5.14;100.00;96344.22;5030333;28;20290;-78
2024/02/24 07:06:44;;;;;;;0.82;0.82;;;4.60;99.90;;;5.18;100.00;96345.41;5032543;28;20474;-78
2024/02/24 07:09:12;;;;;;;2.47;0.80;;;4.60;99.90;;;5.20;100.00;96348.63;5032769;28;20222;-78
2024/02/24 07:11:41;;;;;;;0.80;0.80;;;4.60;99.90;;;5.21;100.00;96357.97;5030632;28;20464;-77
2024/02/24 07:14:09;;;;;;;0.90;0.90;;;4.60;99.90;;;5.13;100.00;96362.56;5031884;28;20470;-78
2024/02/24 07:16:38;;;;;;;2.17;0.97;;;4.50;99.90;;;5.10;100.00;96366.34;5031587;28;20570;-79
2024/02/24 07:19:08;;;;;;;0.80;0.80;;;4.50;99.90;;;5.14;100.00;96364.94;5034312;28;20974;-78
2024/02/24 07:21:43;;;;;;;1.10;0.90;;;4.60;99.90;;;5.19;100.00;96374.72;5029662;28;20197;-79
2024/02/24 07:24:11;;;;;;;1.27;0.77;;;4.50;99.90;;;5.15;100.00;96382.09;5031985;28;20520;-78
2024/02/24 07:26:43;;;;;;;0.80;0.80;;;4.60;99.90;;;5.07;100.00;96385.63;5032779;28;20472;-81
2024/02/24 07:29:17;;;;;;;31.73;15.80;;;4.60;99.90;;;5.10;100.00;96392.25;5030716;28;20465;-78
2024/02/24 07:31:47;;;;;;;2.25;1.20;;;4.50;99.90;;;5.11;100.00;96409.38;5031670;28;20473;-79
2024/02/24 07:34:17;;;;;;;0.80;0.70;;;4.50;99.90;;;5.08;100.00;96414.94;5031197;28;20201;-79
2024/02/24 07:36:45;;;;;;;0.90;0.80;;;4.60;99.90;;;5.00;100.00;96415.88;5035653;28;20466;-78
2024/02/24 07:39:14;;;;;;;0.90;0.80;;;4.40;99.90;;;5.05;100.00;96431.66;5045226;28;20241;-78
2024/02/24 07:41:42;;;;;;;0.80;0.80;;;4.40;99.90;;;5.03;100.00;96432.84;5041382;28;20529;-78
2024/02/24 07:44:12;;;;;;;0.80;0.70;;;4.30;99.90;;;5.02;100.00;96431.25;5041992;28;20792;-78
2024/02/24 07:46:40;;;;;;;0.80;0.80;;;4.40;99.90;;;4.94;100.00;96441.75;5044104;28;20459;-78
2024/02/24 07:49:09;;;;;;;0.80;0.80;;;4.30;99.90;;;5.00;100.00;96448.75;5044196;28;20498;-78
2024/02/24 07:51:40;;;;;;;1.00;0.90;;;4.40;99.90;;;5.01;100.00;96452.94;5041217;28;20486;-78
2024/02/24 07:54:08;;;;;;;1.93;1.23;;;4.50;99.90;;;4.90;100.00;96451.69;5041479;28;20461;-78
2024/02/24 07:56:38;;;;;;;1.53;0.90;;;4.40;99.90;;;4.93;100.00;96460.88;5042038;28;20487;-77
2024/02/24 07:59:07;;;;;;;1.97;0.90;;;4.40;99.90;;;4.95;100.00;96458.91;5034085;28;20475;-77
2024/02/24 08:01:35;;;;;;;2.38;1.10;;;4.40;99.90;;;5.02;100.00;96470.09;5030356;28;20467;-77
2024/02/24 08:04:04;;;;;;;1.00;0.80;;;4.50;99.90;;;5.01;100.00;96468.50;5031804;28;20204;-77
2024/02/24 08:06:33;;;;;;;1.17;0.90;;;4.40;99.90;;;5.07;100.00;96468.53;5031106;28;20210;-78
2024/02/24 08:09:03;;;;;;;0.80;0.80;;;4.50;99.90;;;5.10;100.00;96479.50;5035331;28;20462;-78
2024/02/24 08:11:39;;;;;;;2.60;1.13;;;4.60;99.90;;;5.13;100.00;96487.69;5032968;28;21013;-78
2024/02/24 08:14:09;;;;;;;4.23;1.10;;;4.60;99.90;;;5.08;100.00;96495.22;5032887;28;20470;-79
2024/02/24 08:16:39;;;;;;;1.23;0.90;;;4.50;99.90;;;5.04;100.00;96496.59;5035404;28;20487;-78
2024/02/24 08:19:07;;;;;;;11.47;5.60;;;4.50;99.90;;;5.08;100.00;96495.22;5032616;28;20745;-82
2024/02/24 08:21:37;;;;;;;1.80;1.53;;;4.70;99.90;;;5.11;100.00;96504.41;5033934;28;20521;-78
2024/02/24 08:24:09;;;;;;;1.70;1.30;;;4.60;99.90;;;5.13;100.00;96503.25;5035264;28;20898;-77
2024/02/24 08:26:39;;;;;;;0.90;0.80;;;4.60;99.90;;;5.10;100.00;96503.63;5037320;28;20451;-78
2024/02/24 08:29:09;;;;;;;1.97;1.00;;;4.70;99.90;;;5.08;100.00;96510.78;5035455;28;20195;-78
2024/02/24 08:31:39;;;;;;;1.10;1.00;;;4.60;99.90;;;5.17;100.00;96508.84;5038084;28;20896;-78
2024/02/24 08:34:07;;;;;;;1.70;0.90;;;4.70;99.90;;;5.22;100.00;96512.44;5038143;28;20470;-78
2024/02/24 08:36:36;;;;;;;1.10;1.00;;;4.70;99.90;;;5.16;100.00;96518.41;5037513;28;20463;-78
2024/02/24 08:39:07;;;;;;;1.97;1.00;;;4.70;99.90;;;5.17;100.00;96525.19;5037196;28;20707;-78
2024/02/24 08:41:36;;;;;;;1.47;0.87;;;4.70;99.90;;;5.19;100.00;96523.19;5038002;28;20646;-77
2024/02/24 08:44:06;;;;;;;0.80;0.80;;;4.70;99.90;;;5.21;100.00;96526.38;5035959;28;20465;-78
2024/02/24 08:46:34;;;;;;;1.27;1.10;;;4.80;99.90;;;5.13;100.00;96536.94;5040535;28;20457;-77
2024/02/24 08:49:03;;;;;;;1.00;0.90;;;4.70;99.90;;;5.15;100.00;96547.88;5041881;28;20462;-78
2024/02/24 08:51:31;;;;;;;1.27;1.00;;;4.60;99.90;;;5.17;100.00;96547.72;5041884;28;20499;-78
2024/02/24 08:54:00;;;;;;;2.20;1.10;;;4.60;99.90;;;5.23;100.00;96550.34;5042617;28;20453;-78
2024/02/24 08:56:30;;;;;;;1.00;0.90;;;4.70;99.90;;;5.28;100.00;96553.13;5040129;28;20469;-78
2024/02/24 08:58:58;;;;;;;1.00;0.80;;;4.80;99.90;;;5.38;100.00;96555.41;5040468;28;20584;-78
2024/02/24 09:01:27;;;;;;;1.67;0.80;;;4.90;99.90;;;5.32;100.00;96556.94;5040353;28;20543;-78
2024/02/24 09:03:59;;;;;;;1.57;1.20;;;4.90;99.90;;;5.30;100.00;96561.53;5040520;28;20203;-78
2024/02/24 09:06:28;;;;;;;3.53;0.90;;;5.00;99.90;;;5.32;100.00;96566.50;5040221;28;20484;-78
2024/02/24 09:08:56;;;;;;;0.87;0.80;;;5.00;99.90;;;5.29;100.00;96574.66;5041537;28;20806;-78
2024/02/24 09:11:25;;;;;;;1.00;0.80;;;5.00;99.90;;;5.28;100.00;96571.28;5041384;28;20453;-77
2024/02/24 09:13:55;;;;;;;1.00;0.87;;;5.10;99.90;;;5.30;100.00;96571.91;5041486;28;20468;-78
2024/02/24 09:16:24;;;;;;;1.17;1.00;;;4.90;99.90;;;5.38;100.00;96574.31;5041447;28;20453;-78
2024/02/24 09:18:52;;;;;;;1.10;0.90;;;5.00;99.90;;;5.47;100.00;96578.38;5040048;28;20496;-77
2024/02/24 09:21:21;;;;;;;1.67;1.10;;;5.00;99.90;;;5.48;100.00;96579.97;5041800;28;20394;-78
2024/02/24 09:23:49;;;;;;;0.80;0.80;;;5.00;99.90;;;5.52;100.00;96581.19;5039246;28;21791;-77
2024/02/24 09:26:20;;;;;;;0.87;0.77;;;4.90;99.90;;;5.53;100.00;96582.78;5039087;28;20469;-77
2024/02/24 09:28:48;;;;;;;1.10;1.00;;;4.90;99.90;;;5.65;100.00;96596.03;5039214;28;20562;-77
2024/02/24 09:31:18;;;;;;;0.93;0.73;;;5.00;99.90;;;5.52;100.00;96591.56;5041182;28;20461;-78
2024/02/24 09:33:54;;;;;;;0.83;0.80;;;4.90;99.90;;;5.59;100.00;96607.94;5040155;28;20217;-77
2024/02/24 09:36:22;;;;;;;1.60;0.90;;;5.00;99.90;;;5.68;100.00;96612.97;5040512;28;20485;-77
2024/02/24 09:38:51;;;;;;;3.43;1.13;;;5.10;99.90;;;5.55;100.00;96611.13;5040357;28;20501;-77
2024/02/24 09:41:19;;;;;;;1.03;0.83;;;5.00;99.90;;;5.50;100.00;96623.84;5040752;28;20901;-77
2024/02/24 09:43:48;;;;;;;2.00;1.00;;;4.90;99.90;;;5.43;100.00;96629.00;5039674;28;20518;-78
2024/02/24 09:46:18;;;;;;;1.63;0.97;;;5.00;99.90;;;5.49;100.00;96627.44;5040686;28;20417;-78
2024/02/24 09:48:47;;;;;;;1.23;1.00;;;4.90;99.90;;;5.54;100.00;96644.03;5041735;28;20469;-77
2024/02/24 09:51:16;;;;;;;1.67;1.13;;;4.90;99.90;;;5.53;100.00;96626.88;5040416;28;20471;-77
2024/02/24 09:53:45;;;;;;;3.45;1.20;;;5.10;99.90;;;5.62;100.00;96647.47;5041041;28;20471;-78
2024/02/24 09:56:18;;;;;;;2.40;0.90;;;5.10;99.90;;;5.67;100.00;96642.50;5040383;28;20685;-77
2024/02/24 09:58:48;;;;;;;4.60;0.90;;;5.10;99.90;;;5.74;100.00;96654.50;5040478;28;21002;-77
2024/02/24 10:01:18;;;;;;;0.90;0.90;;;5.10;99.90;;;5.76;100.00;96662.13;5041375;28;21298;-78
2024/02/24 10:03:48;;;;;;;2.28;1.00;;;5.10;99.90;;;5.76;100.00;96660.28;5037157;28;20476;-77
2024/02/24 10:06:17;;;;;;;1.63;1.00;;;5.10;99.90;;;5.73;100.00;96649.50;5035424;28;20527;-77
2024/02/24 10:08:47;;;;;;;19.47;10.83;;;5.10;99.90;;;5.76;100.00;96664.69;5032081;28;20533;-76
2024/02/24 10:11:15;;;;;;;3.90;2.47;;;5.10;99.90;;;5.79;100.00;96664.31;5034393;28;20483;-77
2024/02/24 10:13:44;;;;;;;1.27;0.90;;;5.10;99.90;;;5.70;100.00;96666.25;5036576;28;20512;-76
2024/02/24 10:16:17;;;;;;;3.40;0.90;;;5.30;99.90;;;5.61;100.00;96667.41;5040837;28;20917;-76
2024/02/24 10:18:47;;;;;;;2.50;1.10;;;5.00;99.90;;;5.55;100.00;96668.94;5040867;28;20563;-77
2024/02/24 10:21:16;;;;;;;0.90;0.80;;;5.10;99.90;;;5.58;100.00;96668.59;5038288;28;20560;-77
2024/02/24 10:23:46;;;;;;;1.30;1.00;;;5.10;99.90;;;5.54;100.00;96680.31;5040013;28;20464;-76
2024/02/24 10:26:16;;;;;;;1.10;0.90;;;5.00;99.90;;;5.48;100.00;96680.28;5038031;28;20840;-77
2024/02/24 10:28:45;;;;;;;1.30;0.90;;;4.90;99.90;;;5.48;100.00;96690.66;5037596;28;20300;-76
2024/02/24 10:31:15;;;;;;;0.80;0.80;;;4.80;99.90;;;5.49;100.00;96689.63;5038506;28;20469;-77
2024/02/24 10:33:48;;;;;;;0.80;0.80;;;4.90;99.90;;;5.53;100.00;96686.50;5038646;28;21110;-78